sensor_id;sensor_type;location;lat;lon;timestamp;temperature;humidity
25092;DHT22;13082;52.374;4.946;2022-11-21T00:00:04;4.00;99.90
25092;DHT22;13082;52.374;4.946;2022-11-21T00:02:31;4.00;99.90
25092;DHT22;13082;52.374;4.946;2022-11-21T00:04:57;4.10;99.90
25092;DHT22;13082;52.374;4.946;2022-11-21T00:07:22;4.00;99.90
25092;DHT22;13082;52.374;4.946;2022-11-21T00:09:48;4.10;99.90
25092;DHT22;13082;52.374;4.946;2022-11-21T00:12:15;4.10;99.90
25092;DHT22;13082;52.374;4.946;2022-11-21T00:14:40;4.10;99.90
25092;DHT22;13082;52.374;4.946;2022-11-21T00:17:06;4.10;99.90
25092;DHT22;13082;52.374;4.946;2022-11-21T00:19:32;4.00;99.90
25092;DHT22;13082;52.374;4.946;2022-11-21T00:21:58;4.10;99.90
25092;DHT22;13082;52.374;4.946;2022-11-21T00:24:23;4.10;99.90
25092;DHT22;13082;52.374;4.946;2022-11-21T00:26:49;4.10;99.90
25092;DHT22;13082;52.374;4.946;2022-11-21T00:29:14;4.10;99.90
25092;DHT22;13082;52.374;4.946;2022-11-21T00:31:40;4.20;99.90
25092;DHT22;13082;52.374;4.946;2022-11-21T00:34:05;4.30;99.90
25092;DHT22;13082;52.374;4.946;2022-11-21T00:36:31;4.20;99.90
25092;DHT22;13082;52.374;4.946;2022-11-21T00:38:57;4.20;99.90
25092;DHT22;13082;52.374;4.946;2022-11-21T00:41:22;4.20;99.90
25092;DHT22;13082;52.374;4.946;2022-11-21T00:43:48;4.30;99.90
25092;DHT22;13082;52.374;4.946;2022-11-21T00:46:13;4.30;99.90
25092;DHT22;13082;52.374;4.946;2022-11-21T00:48:39;4.40;99.90
25092;DHT22;13082;52.374;4.946;2022-11-21T00:51:04;4.40;99.90
25092;DHT22;13082;52.374;4.946;2022-11-21T00:53:30;4.40;99.90
25092;DHT22;13082;52.374;4.946;2022-11-21T00:55:56;4.40;99.90
25092;DHT22;13082;52.374;4.946;2022-11-21T00:58:22;4.20;99.90
25092;DHT22;13082;52.374;4.946;2022-11-21T01:00:47;4.20;99.90
25092;DHT22;13082;52.374;4.946;2022-11-21T01:03:13;4.10;99.90
25092;DHT22;13082;52.374;4.946;2022-11-21T01:05:38;4.10;99.90
25092;DHT22;13082;52.374;4.946;2022-11-21T01:08:04;4.00;99.90
25092;DHT22;13082;52.374;4.946;2022-11-21T01:10:30;4.00;99.90
25092;DHT22;13082;52.374;4.946;2022-11-21T01:12:55;3.90;99.90
25092;DHT22;13082;52.374;4.946;2022-11-21T01:15:21;3.90;99.90
25092;DHT22;13082;52.374;4.946;2022-11-21T01:17:47;4.00;99.90
25092;DHT22;13082;52.374;4.946;2022-11-21T01:20:13;4.00;99.90
25092;DHT22;13082;52.374;4.946;2022-11-21T01:22:39;3.90;99.90
25092;DHT22;13082;52.374;4.946;2022-11-21T01:25:04;3.90;99.90
25092;DHT22;13082;52.374;4.946;2022-11-21T01:27:30;3.80;99.90
25092;DHT22;13082;52.374;4.946;2022-11-21T01:29:56;3.80;99.90
25092;DHT22;13082;52.374;4.946;2022-11-21T01:32:21;3.80;99.90
25092;DHT22;13082;52.374;4.946;2022-11-21T01:34:47;3.70;99.90
25092;DHT22;13082;52.374;4.946;2022-11-21T01:37:12;3.80;99.90
25092;DHT22;13082;52.374;4.946;2022-11-21T01:39:38;3.70;99.90
25092;DHT22;13082;52.374;4.946;2022-11-21T01:42:04;3.70;99.90
25092;DHT22;13082;52.374;4.946;2022-11-21T01:44:52;3.70;99.90
25092;DHT22;13082;52.374;4.946;2022-11-21T01:47:19;3.70;99.90
25092;DHT22;13082;52.374;4.946;2022-11-21T01:49:47;3.70;99.90
25092;DHT22;13082;52.374;4.946;2022-11-21T01:52:24;3.70;99.90
25092;DHT22;13082;52.374;4.946;2022-11-21T01:54:56;3.70;99.90
25092;DHT22;13082;52.374;4.946;2022-11-21T01:57:26;3.70;99.90
25092;DHT22;13082;52.374;4.946;2022-11-21T02:02:24;3.60;99.90
25092;DHT22;13082;52.374;4.946;2022-11-21T02:04:52;3.60;99.90
25092;DHT22;13082;52.374;4.946;2022-11-21T02:07:20;3.60;99.90
25092;DHT22;13082;52.374;4.946;2022-11-21T02:09:51;3.70;99.90
25092;DHT22;13082;52.374;4.946;2022-11-21T02:12:27;3.60;99.90
25092;DHT22;13082;52.374;4.946;2022-11-21T02:14:54;3.60;99.90
25092;DHT22;13082;52.374;4.946;2022-11-21T02:17:20;3.50;99.90
25092;DHT22;13082;52.374;4.946;2022-11-21T02:19:58;3.60;99.90
25092;DHT22;13082;52.374;4.946;2022-11-21T02:25:18;3.60;99.90
25092;DHT22;13082;52.374;4.946;2022-11-21T02:27:45;3.60;99.90
25092;DHT22;13082;52.374;4.946;2022-11-21T02:30:13;3.60;99.90
25092;DHT22;13082;52.374;4.946;2022-11-21T02:32:43;3.50;99.90
25092;DHT22;13082;52.374;4.946;2022-11-21T02:35:17;3.40;99.90
25092;DHT22;13082;52.374;4.946;2022-11-21T02:37:50;3.50;99.90
25092;DHT22;13082;52.374;4.946;2022-11-21T02:40:22;3.50;99.90
25092;DHT22;13082;52.374;4.946;2022-11-21T02:45:45;3.40;99.90
25092;DHT22;13082;52.374;4.946;2022-11-21T02:48:11;3.30;99.90
25092;DHT22;13082;52.374;4.946;2022-11-21T02:50:39;3.30;99.90
25092;DHT22;13082;52.374;4.946;2022-11-21T02:53:07;3.40;99.90
25092;DHT22;13082;52.374;4.946;2022-11-21T02:55:33;3.30;99.90
25092;DHT22;13082;52.374;4.946;2022-11-21T02:57:58;3.30;99.90
25092;DHT22;13082;52.374;4.946;2022-11-21T03:00:24;3.40;99.90
25092;DHT22;13082;52.374;4.946;2022-11-21T03:02:50;3.40;99.90
25092;DHT22;13082;52.374;4.946;2022-11-21T03:05:17;3.30;99.90
25092;DHT22;13082;52.374;4.946;2022-11-21T03:07:44;3.20;99.90
25092;DHT22;13082;52.374;4.946;2022-11-21T03:10:10;3.20;99.90
25092;DHT22;13082;52.374;4.946;2022-11-21T03:12:37;3.10;99.90
25092;DHT22;13082;52.374;4.946;2022-11-21T03:15:04;3.10;99.90
25092;DHT22;13082;52.374;4.946;2022-11-21T03:17:30;3.10;99.90
25092;DHT22;13082;52.374;4.946;2022-11-21T03:19:56;3.10;99.90
25092;DHT22;13082;52.374;4.946;2022-11-21T03:22:22;3.10;99.90
25092;DHT22;13082;52.374;4.946;2022-11-21T03:24:48;3.10;99.90
25092;DHT22;13082;52.374;4.946;2022-11-21T03:27:13;3.10;99.90
25092;DHT22;13082;52.374;4.946;2022-11-21T03:29:39;3.10;99.90
25092;DHT22;13082;52.374;4.946;2022-11-21T03:32:05;3.10;99.90
25092;DHT22;13082;52.374;4.946;2022-11-21T03:34:31;3.10;99.90
25092;DHT22;13082;52.374;4.946;2022-11-21T03:36:56;3.20;99.90
25092;DHT22;13082;52.374;4.946;2022-11-21T03:39:22;3.10;99.90
25092;DHT22;13082;52.374;4.946;2022-11-21T03:41:47;3.10;99.90
25092;DHT22;13082;52.374;4.946;2022-11-21T03:44:13;3.10;99.90
25092;DHT22;13082;52.374;4.946;2022-11-21T03:46:42;3.10;99.90
25092;DHT22;13082;52.374;4.946;2022-11-21T03:49:08;3.20;99.90
25092;DHT22;13082;52.374;4.946;2022-11-21T03:51:34;3.20;99.90
25092;DHT22;13082;52.374;4.946;2022-11-21T03:54:01;3.20;99.90
25092;DHT22;13082;52.374;4.946;2022-11-21T03:56:27;3.30;99.90
25092;DHT22;13082;52.374;4.946;2022-11-21T03:58:53;3.30;99.90
25092;DHT22;13082;52.374;4.946;2022-11-21T04:01:18;3.10;99.90
25092;DHT22;13082;52.374;4.946;2022-11-21T04:03:45;3.10;99.90
25092;DHT22;13082;52.374;4.946;2022-11-21T04:06:12;3.10;99.90
25092;DHT22;13082;52.374;4.946;2022-11-21T04:08:38;3.10;99.90
25092;DHT22;13082;52.374;4.946;2022-11-21T04:11:04;3.20;99.90
25092;DHT22;13082;52.374;4.946;2022-11-21T04:13:30;3.20;99.90
25092;DHT22;13082;52.374;4.946;2022-11-21T04:15:56;3.30;99.90
25092;DHT22;13082;52.374;4.946;2022-11-21T04:18:22;3.20;99.90
25092;DHT22;13082;52.374;4.946;2022-11-21T04:20:47;3.30;99.90
25092;DHT22;13082;52.374;4.946;2022-11-21T04:23:13;3.30;99.90
25092;DHT22;13082;52.374;4.946;2022-11-21T04:25:40;3.30;99.90
25092;DHT22;13082;52.374;4.946;2022-11-21T04:28:06;3.30;99.90
25092;DHT22;13082;52.374;4.946;2022-11-21T04:30:33;3.30;99.90
25092;DHT22;13082;52.374;4.946;2022-11-21T04:32:59;3.30;99.90
25092;DHT22;13082;52.374;4.946;2022-11-21T04:35:25;3.30;99.90
25092;DHT22;13082;52.374;4.946;2022-11-21T04:37:51;3.30;99.90
25092;DHT22;13082;52.374;4.946;2022-11-21T04:40:17;3.40;99.90
25092;DHT22;13082;52.374;4.946;2022-11-21T04:42:44;3.40;99.90
25092;DHT22;13082;52.374;4.946;2022-11-21T04:45:11;3.30;99.90
25092;DHT22;13082;52.374;4.946;2022-11-21T04:47:37;3.40;99.90
25092;DHT22;13082;52.374;4.946;2022-11-21T04:50:03;3.30;99.90
25092;DHT22;13082;52.374;4.946;2022-11-21T04:52:29;3.40;99.90
25092;DHT22;13082;52.374;4.946;2022-11-21T04:54:55;3.30;99.90
25092;DHT22;13082;52.374;4.946;2022-11-21T04:57:21;3.30;99.90
25092;DHT22;13082;52.374;4.946;2022-11-21T04:59:46;3.20;99.90
25092;DHT22;13082;52.374;4.946;2022-11-21T05:02:12;3.20;99.90
25092;DHT22;13082;52.374;4.946;2022-11-21T05:04:38;3.30;99.90
25092;DHT22;13082;52.374;4.946;2022-11-21T05:07:04;3.20;99.90
25092;DHT22;13082;52.374;4.946;2022-11-21T05:09:29;3.20;99.90
25092;DHT22;13082;52.374;4.946;2022-11-21T05:11:55;3.20;99.90
25092;DHT22;13082;52.374;4.946;2022-11-21T05:14:39;3.10;99.90
25092;DHT22;13082;52.374;4.946;2022-11-21T05:17:05;3.10;99.90
25092;DHT22;13082;52.374;4.946;2022-11-21T05:19:30;3.20;99.90
25092;DHT22;13082;52.374;4.946;2022-11-21T05:21:56;3.20;99.90
25092;DHT22;13082;52.374;4.946;2022-11-21T05:24:22;3.10;99.90
25092;DHT22;13082;52.374;4.946;2022-11-21T05:26:47;3.10;99.90
25092;DHT22;13082;52.374;4.946;2022-11-21T05:29:13;3.10;99.90
25092;DHT22;13082;52.374;4.946;2022-11-21T05:31:39;3.20;99.90
25092;DHT22;13082;52.374;4.946;2022-11-21T05:34:04;3.20;99.90
25092;DHT22;13082;52.374;4.946;2022-11-21T05:36:30;3.20;99.90
25092;DHT22;13082;52.374;4.946;2022-11-21T05:38:55;3.20;99.90
25092;DHT22;13082;52.374;4.946;2022-11-21T05:41:21;3.20;99.90
25092;DHT22;13082;52.374;4.946;2022-11-21T05:43:47;3.20;99.90
25092;DHT22;13082;52.374;4.946;2022-11-21T05:46:15;3.30;99.90
25092;DHT22;13082;52.374;4.946;2022-11-21T05:48:41;3.30;99.90
25092;DHT22;13082;52.374;4.946;2022-11-21T05:51:06;3.30;99.90
25092;DHT22;13082;52.374;4.946;2022-11-21T05:53:33;3.30;99.90
25092;DHT22;13082;52.374;4.946;2022-11-21T05:56:09;3.20;99.90
25092;DHT22;13082;52.374;4.946;2022-11-21T05:58:35;3.20;99.90
25092;DHT22;13082;52.374;4.946;2022-11-21T06:01:01;3.10;99.90
25092;DHT22;13082;52.374;4.946;2022-11-21T06:03:29;3.10;99.90
25092;DHT22;13082;52.374;4.946;2022-11-21T06:06:05;3.10;99.90
25092;DHT22;13082;52.374;4.946;2022-11-21T06:08:33;3.20;99.90
25092;DHT22;13082;52.374;4.946;2022-11-21T06:10:59;3.20;99.90
25092;DHT22;13082;52.374;4.946;2022-11-21T06:13:25;3.20;99.90
25092;DHT22;13082;52.374;4.946;2022-11-21T06:15:58;3.30;99.90
25092;DHT22;13082;52.374;4.946;2022-11-21T06:18:25;3.30;99.90
25092;DHT22;13082;52.374;4.946;2022-11-21T06:20:51;3.30;99.90
25092;DHT22;13082;52.374;4.946;2022-11-21T06:23:16;3.30;99.90
25092;DHT22;13082;52.374;4.946;2022-11-21T06:25:42;3.30;99.90
25092;DHT22;13082;52.374;4.946;2022-11-21T06:28:09;3.30;99.90
25092;DHT22;13082;52.374;4.946;2022-11-21T06:30:35;3.30;99.90
25092;DHT22;13082;52.374;4.946;2022-11-21T06:33:03;3.30;99.90
25092;DHT22;13082;52.374;4.946;2022-11-21T06:35:29;3.30;99.90
25092;DHT22;13082;52.374;4.946;2022-11-21T06:37:55;3.30;99.90
25092;DHT22;13082;52.374;4.946;2022-11-21T06:40:21;3.30;99.90
25092;DHT22;13082;52.374;4.946;2022-11-21T06:42:47;3.30;99.90
25092;DHT22;13082;52.374;4.946;2022-11-21T06:45:12;3.40;99.90
25092;DHT22;13082;52.374;4.946;2022-11-21T06:47:38;3.40;99.90
25092;DHT22;13082;52.374;4.946;2022-11-21T06:50:04;3.50;99.90
25092;DHT22;13082;52.374;4.946;2022-11-21T06:52:32;3.50;99.90
25092;DHT22;13082;52.374;4.946;2022-11-21T06:54:58;3.50;99.90
25092;DHT22;13082;52.374;4.946;2022-11-21T06:57:24;3.60;99.90
25092;DHT22;13082;52.374;4.946;2022-11-21T06:59:49;3.50;99.90
25092;DHT22;13082;52.374;4.946;2022-11-21T07:02:15;3.60;99.90
25092;DHT22;13082;52.374;4.946;2022-11-21T07:04:40;3.60;99.90
25092;DHT22;13082;52.374;4.946;2022-11-21T07:07:06;3.60;99.90
25092;DHT22;13082;52.374;4.946;2022-11-21T07:09:32;3.60;99.90
25092;DHT22;13082;52.374;4.946;2022-11-21T07:12:01;3.60;99.90
25092;DHT22;13082;52.374;4.946;2022-11-21T07:14:45;3.60;99.90
25092;DHT22;13082;52.374;4.946;2022-11-21T07:17:11;3.60;99.90
25092;DHT22;13082;52.374;4.946;2022-11-21T07:19:38;3.60;99.90
25092;DHT22;13082;52.374;4.946;2022-11-21T07:22:04;3.60;99.90
25092;DHT22;13082;52.374;4.946;2022-11-21T07:24:29;3.70;99.90
25092;DHT22;13082;52.374;4.946;2022-11-21T07:26:55;3.80;99.90
25092;DHT22;13082;52.374;4.946;2022-11-21T07:29:20;3.80;99.90
25092;DHT22;13082;52.374;4.946;2022-11-21T07:31:46;3.80;99.90
25092;DHT22;13082;52.374;4.946;2022-11-21T07:34:11;3.80;99.90
25092;DHT22;13082;52.374;4.946;2022-11-21T07:36:37;3.80;99.90
25092;DHT22;13082;52.374;4.946;2022-11-21T07:39:03;3.80;99.90
25092;DHT22;13082;52.374;4.946;2022-11-21T07:41:28;3.80;99.90
25092;DHT22;13082;52.374;4.946;2022-11-21T07:43:54;3.80;99.90
25092;DHT22;13082;52.374;4.946;2022-11-21T07:46:20;3.80;99.90
25092;DHT22;13082;52.374;4.946;2022-11-21T07:48:45;3.80;99.90
25092;DHT22;13082;52.374;4.946;2022-11-21T07:51:11;3.80;99.90
25092;DHT22;13082;52.374;4.946;2022-11-21T07:53:37;3.90;99.90
25092;DHT22;13082;52.374;4.946;2022-11-21T07:56:02;3.90;99.90
25092;DHT22;13082;52.374;4.946;2022-11-21T07:58:29;4.00;99.90
25092;DHT22;13082;52.374;4.946;2022-11-21T08:00:54;4.00;99.90
25092;DHT22;13082;52.374;4.946;2022-11-21T08:03:20;3.90;99.90
25092;DHT22;13082;52.374;4.946;2022-11-21T08:05:47;3.90;99.90
25092;DHT22;13082;52.374;4.946;2022-11-21T08:08:13;4.00;99.90
25092;DHT22;13082;52.374;4.946;2022-11-21T08:10:42;4.00;99.90
25092;DHT22;13082;52.374;4.946;2022-11-21T08:13:09;4.10;99.90
25092;DHT22;13082;52.374;4.946;2022-11-21T08:15:35;4.20;99.90
25092;DHT22;13082;52.374;4.946;2022-11-21T08:18:15;4.30;99.90
25092;DHT22;13082;52.374;4.946;2022-11-21T08:20:43;4.40;99.90
25092;DHT22;13082;52.374;4.946;2022-11-21T08:23:09;4.40;99.90
25092;DHT22;13082;52.374;4.946;2022-11-21T08:25:38;4.30;99.90
25092;DHT22;13082;52.374;4.946;2022-11-21T08:28:05;4.30;99.90
25092;DHT22;13082;52.374;4.946;2022-11-21T08:30:32;4.30;99.90
25092;DHT22;13082;52.374;4.946;2022-11-21T08:32:58;4.30;99.90
25092;DHT22;13082;52.374;4.946;2022-11-21T08:35:24;4.30;99.90
25092;DHT22;13082;52.374;4.946;2022-11-21T08:37:55;4.30;99.90
25092;DHT22;13082;52.374;4.946;2022-11-21T08:40:21;4.30;99.90
25092;DHT22;13082;52.374;4.946;2022-11-21T08:42:46;4.30;99.90
25092;DHT22;13082;52.374;4.946;2022-11-21T08:45:12;4.20;99.90
25092;DHT22;13082;52.374;4.946;2022-11-21T08:47:37;4.30;99.90
25092;DHT22;13082;52.374;4.946;2022-11-21T08:50:03;4.20;99.90
25092;DHT22;13082;52.374;4.946;2022-11-21T08:52:29;4.20;99.90
25092;DHT22;13082;52.374;4.946;2022-11-21T08:54:54;4.20;99.90
25092;DHT22;13082;52.374;4.946;2022-11-21T08:57:20;4.20;99.90
25092;DHT22;13082;52.374;4.946;2022-11-21T08:59:45;4.20;99.90
25092;DHT22;13082;52.374;4.946;2022-11-21T09:02:11;4.20;99.90
25092;DHT22;13082;52.374;4.946;2022-11-21T09:04:37;4.30;99.90
25092;DHT22;13082;52.374;4.946;2022-11-21T09:07:02;4.30;99.90
25092;DHT22;13082;52.374;4.946;2022-11-21T09:09:28;4.30;99.90
25092;DHT22;13082;52.374;4.946;2022-11-21T09:11:54;4.30;99.90
25092;DHT22;13082;52.374;4.946;2022-11-21T09:14:20;4.30;99.90
25092;DHT22;13082;52.374;4.946;2022-11-21T09:17:04;4.30;99.90
25092;DHT22;13082;52.374;4.946;2022-11-21T09:19:48;4.40;99.90
25092;DHT22;13082;52.374;4.946;2022-11-21T09:22:13;4.40;99.90
25092;DHT22;13082;52.374;4.946;2022-11-21T09:24:39;4.50;99.90
25092;DHT22;13082;52.374;4.946;2022-11-21T09:27:04;4.50;99.90
25092;DHT22;13082;52.374;4.946;2022-11-21T09:29:30;4.50;99.90
25092;DHT22;13082;52.374;4.946;2022-11-21T09:31:55;4.60;99.90
25092;DHT22;13082;52.374;4.946;2022-11-21T09:34:21;4.60;99.90
25092;DHT22;13082;52.374;4.946;2022-11-21T09:36:47;4.60;99.90
25092;DHT22;13082;52.374;4.946;2022-11-21T09:39:12;4.70;99.90
25092;DHT22;13082;52.374;4.946;2022-11-21T09:47:42;4.80;99.90
25092;DHT22;13082;52.374;4.946;2022-11-21T09:53:02;4.90;99.90
25092;DHT22;13082;52.374;4.946;2022-11-21T09:55:40;4.90;99.90
25092;DHT22;13082;52.374;4.946;2022-11-21T10:00:56;5.00;99.90
25092;DHT22;13082;52.374;4.946;2022-11-21T10:03:26;5.00;99.90
25092;DHT22;13082;52.374;4.946;2022-11-21T10:05:57;5.10;99.90
25092;DHT22;13082;52.374;4.946;2022-11-21T10:11:10;5.10;99.90
25092;DHT22;13082;52.374;4.946;2022-11-21T10:27:38;5.30;99.90
25092;DHT22;13082;52.374;4.946;2022-11-21T10:30:05;5.40;99.90
25092;DHT22;13082;52.374;4.946;2022-11-21T10:32:36;5.40;99.90
25092;DHT22;13082;52.374;4.946;2022-11-21T10:35:13;5.40;99.90
25092;DHT22;13082;52.374;4.946;2022-11-21T10:37:44;5.50;99.90
25092;DHT22;13082;52.374;4.946;2022-11-21T10:46:20;5.50;99.90
25092;DHT22;13082;52.374;4.946;2022-11-21T10:49:04;5.60;99.90
25092;DHT22;13082;52.374;4.946;2022-11-21T10:51:46;5.60;99.90
25092;DHT22;13082;52.374;4.946;2022-11-21T10:54:15;5.70;99.90
25092;DHT22;13082;52.374;4.946;2022-11-21T10:57:25;5.70;99.90
25092;DHT22;13082;52.374;4.946;2022-11-21T11:00:16;5.70;99.90
25092;DHT22;13082;52.374;4.946;2022-11-21T11:02:59;5.80;99.90
25092;DHT22;13082;52.374;4.946;2022-11-21T11:05:30;5.80;99.90
25092;DHT22;13082;52.374;4.946;2022-11-21T11:10:33;5.90;99.90
25092;DHT22;13082;52.374;4.946;2022-11-21T11:12:59;5.90;99.90
25092;DHT22;13082;52.374;4.946;2022-11-21T11:18:50;5.90;99.90
25092;DHT22;13082;52.374;4.946;2022-11-21T11:21:29;6.00;99.90
25092;DHT22;13082;52.374;4.946;2022-11-21T11:26:32;6.00;99.90
25092;DHT22;13082;52.374;4.946;2022-11-21T11:29:08;6.00;99.90
25092;DHT22;13082;52.374;4.946;2022-11-21T11:34:37;6.10;99.90
25092;DHT22;13082;52.374;4.946;2022-11-21T11:37:12;6.10;99.90
25092;DHT22;13082;52.374;4.946;2022-11-21T11:43:02;6.30;99.90
25092;DHT22;13082;52.374;4.946;2022-11-21T11:48:54;6.30;99.90
25092;DHT22;13082;52.374;4.946;2022-11-21T11:51:27;6.40;99.90
25092;DHT22;13082;52.374;4.946;2022-11-21T11:53:59;6.50;99.90
25092;DHT22;13082;52.374;4.946;2022-11-21T11:56:33;6.60;99.90
25092;DHT22;13082;52.374;4.946;2022-11-21T12:01:46;6.70;99.90
25092;DHT22;13082;52.374;4.946;2022-11-21T12:04:18;6.80;99.90
25092;DHT22;13082;52.374;4.946;2022-11-21T12:07:00;6.90;99.90
25092;DHT22;13082;52.374;4.946;2022-11-21T12:14:53;6.80;99.90
25092;DHT22;13082;52.374;4.946;2022-11-21T12:23:41;6.90;99.90
25092;DHT22;13082;52.374;4.946;2022-11-21T12:26:39;7.00;99.90
25092;DHT22;13082;52.374;4.946;2022-11-21T12:37:35;7.20;99.90
25092;DHT22;13082;52.374;4.946;2022-11-21T12:45:55;7.30;99.90
25092;DHT22;13082;52.374;4.946;2022-11-21T12:51:34;7.40;99.90
25092;DHT22;13082;52.374;4.946;2022-11-21T12:57:04;7.40;99.90
25092;DHT22;13082;52.374;4.946;2022-11-21T13:02:33;7.50;99.90
25092;DHT22;13082;52.374;4.946;2022-11-21T13:05:11;7.60;99.90
25092;DHT22;13082;52.374;4.946;2022-11-21T13:07:38;7.60;99.90
25092;DHT22;13082;52.374;4.946;2022-11-21T13:10:04;7.60;99.90
25092;DHT22;13082;52.374;4.946;2022-11-21T13:15:29;7.60;99.90
25092;DHT22;13082;52.374;4.946;2022-11-21T13:18:25;7.60;99.90
25092;DHT22;13082;52.374;4.946;2022-11-21T13:20:50;7.70;99.90
25092;DHT22;13082;52.374;4.946;2022-11-21T13:23:40;7.70;99.90
25092;DHT22;13082;52.374;4.946;2022-11-21T13:28:50;7.80;99.90
25092;DHT22;13082;52.374;4.946;2022-11-21T13:31:31;7.80;99.90
25092;DHT22;13082;52.374;4.946;2022-11-21T13:33:57;7.80;99.90
25092;DHT22;13082;52.374;4.946;2022-11-21T13:44:46;8.00;99.90
25092;DHT22;13082;52.374;4.946;2022-11-21T13:47:36;8.00;99.90
25092;DHT22;13082;52.374;4.946;2022-11-21T14:01:26;7.80;99.90
25092;DHT22;13082;52.374;4.946;2022-11-21T14:06:43;7.80;99.90
25092;DHT22;13082;52.374;4.946;2022-11-21T14:12:02;7.70;99.90
25092;DHT22;13082;52.374;4.946;2022-11-21T14:14:38;7.70;99.90
25092;DHT22;13082;52.374;4.946;2022-11-21T14:22:43;7.60;99.90
25092;DHT22;13082;52.374;4.946;2022-11-21T14:25:21;7.60;99.90
25092;DHT22;13082;52.374;4.946;2022-11-21T14:27:50;7.60;99.90
25092;DHT22;13082;52.374;4.946;2022-11-21T14:30:37;7.60;99.90
25092;DHT22;13082;52.374;4.946;2022-11-21T14:38:27;7.60;99.90
25092;DHT22;13082;52.374;4.946;2022-11-21T14:46:29;7.60;99.90
25092;DHT22;13082;52.374;4.946;2022-11-21T14:48:56;7.60;99.90
25092;DHT22;13082;52.374;4.946;2022-11-21T14:51:24;7.50;99.90
25092;DHT22;13082;52.374;4.946;2022-11-21T14:53:52;7.50;99.90
25092;DHT22;13082;52.374;4.946;2022-11-21T14:56:29;7.50;99.90
25092;DHT22;13082;52.374;4.946;2022-11-21T14:58:57;7.50;99.90
25092;DHT22;13082;52.374;4.946;2022-11-21T15:01:30;7.50;99.90
25092;DHT22;13082;52.374;4.946;2022-11-21T15:03:58;7.50;99.90
25092;DHT22;13082;52.374;4.946;2022-11-21T15:06:26;7.50;99.90
25092;DHT22;13082;52.374;4.946;2022-11-21T15:08:54;7.50;99.90
25092;DHT22;13082;52.374;4.946;2022-11-21T15:11:23;7.50;99.90
25092;DHT22;13082;52.374;4.946;2022-11-21T15:13:54;7.50;99.90
25092;DHT22;13082;52.374;4.946;2022-11-21T15:16:22;7.50;99.90
25092;DHT22;13082;52.374;4.946;2022-11-21T15:18:48;7.50;99.90
25092;DHT22;13082;52.374;4.946;2022-11-21T15:21:14;7.50;99.90
25092;DHT22;13082;52.374;4.946;2022-11-21T15:23:40;7.50;99.90
25092;DHT22;13082;52.374;4.946;2022-11-21T15:26:28;7.50;99.90
25092;DHT22;13082;52.374;4.946;2022-11-21T15:28:57;7.50;99.90
25092;DHT22;13082;52.374;4.946;2022-11-21T15:31:23;7.50;99.90
25092;DHT22;13082;52.374;4.946;2022-11-21T15:34:02;7.50;99.90
25092;DHT22;13082;52.374;4.946;2022-11-21T15:36:30;7.50;99.90
25092;DHT22;13082;52.374;4.946;2022-11-21T15:41:35;7.50;99.90
25092;DHT22;13082;52.374;4.946;2022-11-21T15:46:44;7.50;99.90
25092;DHT22;13082;52.374;4.946;2022-11-21T15:49:12;7.50;99.90
25092;DHT22;13082;52.374;4.946;2022-11-21T15:51:39;7.50;99.90
25092;DHT22;13082;52.374;4.946;2022-11-21T15:54:08;7.50;99.90
25092;DHT22;13082;52.374;4.946;2022-11-21T15:56:34;7.50;99.90
25092;DHT22;13082;52.374;4.946;2022-11-21T15:59:00;7.50;99.90
25092;DHT22;13082;52.374;4.946;2022-11-21T16:01:28;7.50;99.90
25092;DHT22;13082;52.374;4.946;2022-11-21T16:04:11;7.50;99.90
25092;DHT22;13082;52.374;4.946;2022-11-21T16:06:37;7.50;99.90
25092;DHT22;13082;52.374;4.946;2022-11-21T16:09:03;7.50;99.90
25092;DHT22;13082;52.374;4.946;2022-11-21T16:11:34;7.50;99.90
25092;DHT22;13082;52.374;4.946;2022-11-21T16:14:05;7.50;99.90
25092;DHT22;13082;52.374;4.946;2022-11-21T16:16:36;7.50;99.90
25092;DHT22;13082;52.374;4.946;2022-11-21T16:19:01;7.50;99.90
25092;DHT22;13082;52.374;4.946;2022-11-21T16:21:27;7.40;99.90
25092;DHT22;13082;52.374;4.946;2022-11-21T16:23:54;7.40;99.90
25092;DHT22;13082;52.374;4.946;2022-11-21T16:26:19;7.50;99.90
25092;DHT22;13082;52.374;4.946;2022-11-21T16:28:46;7.50;99.90
25092;DHT22;13082;52.374;4.946;2022-11-21T16:31:19;7.50;99.90
25092;DHT22;13082;52.374;4.946;2022-11-21T16:33:45;7.50;99.90
25092;DHT22;13082;52.374;4.946;2022-11-21T16:36:11;7.50;99.90
25092;DHT22;13082;52.374;4.946;2022-11-21T16:38:41;7.50;99.90
25092;DHT22;13082;52.374;4.946;2022-11-21T16:41:09;7.50;99.90
25092;DHT22;13082;52.374;4.946;2022-11-21T16:43:36;7.50;99.90
25092;DHT22;13082;52.374;4.946;2022-11-21T16:46:07;7.50;99.90
25092;DHT22;13082;52.374;4.946;2022-11-21T16:48:33;7.50;99.90
25092;DHT22;13082;52.374;4.946;2022-11-21T16:51:18;7.50;99.90
25092;DHT22;13082;52.374;4.946;2022-11-21T16:53:46;7.50;99.90
25092;DHT22;13082;52.374;4.946;2022-11-21T16:56:14;7.50;99.90
25092;DHT22;13082;52.374;4.946;2022-11-21T16:58:40;7.50;99.90
25092;DHT22;13082;52.374;4.946;2022-11-21T17:01:11;7.40;99.90
25092;DHT22;13082;52.374;4.946;2022-11-21T17:03:38;7.40;99.90
25092;DHT22;13082;52.374;4.946;2022-11-21T17:06:04;7.40;99.90
25092;DHT22;13082;52.374;4.946;2022-11-21T17:08:30;7.40;99.90
25092;DHT22;13082;52.374;4.946;2022-11-21T17:10:55;7.40;99.90
25092;DHT22;13082;52.374;4.946;2022-11-21T17:13:21;7.40;99.90
25092;DHT22;13082;52.374;4.946;2022-11-21T17:15:47;7.40;99.90
25092;DHT22;13082;52.374;4.946;2022-11-21T17:18:12;7.30;99.90
25092;DHT22;13082;52.374;4.946;2022-11-21T17:20:38;7.30;99.90
25092;DHT22;13082;52.374;4.946;2022-11-21T17:23:03;7.30;99.90
25092;DHT22;13082;52.374;4.946;2022-11-21T17:25:29;7.30;99.90
25092;DHT22;13082;52.374;4.946;2022-11-21T17:27:54;7.20;99.90
25092;DHT22;13082;52.374;4.946;2022-11-21T17:30:21;7.20;99.90
25092;DHT22;13082;52.374;4.946;2022-11-21T17:32:47;7.20;99.90
25092;DHT22;13082;52.374;4.946;2022-11-21T17:35:12;7.20;99.90
25092;DHT22;13082;52.374;4.946;2022-11-21T17:37:38;7.20;99.90
25092;DHT22;13082;52.374;4.946;2022-11-21T17:40:04;7.20;99.90
25092;DHT22;13082;52.374;4.946;2022-11-21T17:42:31;7.10;99.90
25092;DHT22;13082;52.374;4.946;2022-11-21T17:44:56;7.10;99.90
25092;DHT22;13082;52.374;4.946;2022-11-21T17:47:22;7.10;99.90
25092;DHT22;13082;52.374;4.946;2022-11-21T17:49:48;7.10;99.90
25092;DHT22;13082;52.374;4.946;2022-11-21T17:52:13;7.10;99.90
25092;DHT22;13082;52.374;4.946;2022-11-21T17:54:39;7.10;99.90
25092;DHT22;13082;52.374;4.946;2022-11-21T17:57:05;7.10;99.90
25092;DHT22;13082;52.374;4.946;2022-11-21T17:59:30;7.10;99.90
25092;DHT22;13082;52.374;4.946;2022-11-21T18:01:56;7.10;99.90
25092;DHT22;13082;52.374;4.946;2022-11-21T18:04:22;7.10;99.90
25092;DHT22;13082;52.374;4.946;2022-11-21T18:06:48;7.10;99.90
25092;DHT22;13082;52.374;4.946;2022-11-21T18:09:13;7.10;99.90
25092;DHT22;13082;52.374;4.946;2022-11-21T18:11:39;7.10;99.90
25092;DHT22;13082;52.374;4.946;2022-11-21T18:14:07;7.00;99.90
25092;DHT22;13082;52.374;4.946;2022-11-21T18:16:33;7.00;99.90
25092;DHT22;13082;52.374;4.946;2022-11-21T18:18:59;7.00;99.90
25092;DHT22;13082;52.374;4.946;2022-11-21T18:21:27;7.00;99.90